Time;durP1;ratioP1;P1;durP2;ratioP2;P2;SDS_P1;SDS_P2;PMS_P1;PMS_P2;Temp;Humidity;BMP_temperature;BMP_pressure;BME280_temperature;BME280_humidity;BME280_pressure;Samples;Min_cycle;Max_cycle;Signal;HPM_P1;HPM_P2
2020/12/26 00:02:06;;;;;;;42.00;20.85;;;2.30;99.90;;;;;;5060010;28;20404;-72
2020/12/26 00:04:31;;;;;;;34.78;20.15;;;2.40;99.90;;;;;;5077598;28;20531;-72
2020/12/26 00:06:57;;;;;;;42.20;20.83;;;2.30;99.90;;;;;;5077520;28;20477;-72
2020/12/26 00:09:22;;;;;;;35.63;19.77;;;2.40;99.90;;;;;;5077178;28;20388;-72
2020/12/26 00:11:51;;;;;;;37.55;20.90;;;2.50;99.90;;;;;;5077115;28;20063;-72
2020/12/26 00:14:16;;;;;;;37.80;19.40;;;2.40;99.90;;;;;;5075669;28;20394;-72
2020/12/26 00:16:42;;;;;;;44.33;20.48;;;2.50;99.90;;;;;;5077219;28;20028;-72
2020/12/26 00:19:09;;;;;;;37.20;20.17;;;2.50;99.90;;;;;;5077248;28;20046;-72
2020/12/26 00:21:36;;;;;;;37.38;18.88;;;2.50;99.90;;;;;;5076667;28;20021;-72
2020/12/26 00:24:02;;;;;;;38.20;19.20;;;2.50;99.90;;;;;;5077122;28;20016;-72
2020/12/26 00:26:27;;;;;;;40.63;19.98;;;2.50;99.90;;;;;;5076863;28;20089;-72
2020/12/26 00:28:53;;;;;;;39.40;18.80;;;2.50;99.90;;;;;;5075669;28;20021;-72
2020/12/26 00:31:18;;;;;;;32.15;17.90;;;2.50;99.90;;;;;;5076782;28;20466;-72
2020/12/26 00:33:44;;;;;;;25.95;17.92;;;2.60;99.90;;;;;;5076759;28;20492;-72
2020/12/26 00:36:09;;;;;;;31.30;17.80;;;2.50;99.90;;;;;;5075741;28;20025;-72
2020/12/26 00:38:35;;;;;;;32.65;18.70;;;2.50;99.90;;;;;;5077089;28;20029;-72
2020/12/26 00:41:01;;;;;;;31.35;16.85;;;2.50;99.90;;;;;;5077040;28;20346;-71
2020/12/26 00:43:27;;;;;;;32.92;17.38;;;2.50;99.90;;;;;;5076994;28;20469;-72
2020/12/26 00:45:52;;;;;;;29.05;15.75;;;2.50;99.90;;;;;;5076961;28;20086;-71
2020/12/26 00:48:18;;;;;;;32.53;16.17;;;2.60;99.90;;;;;;5075513;28;20039;-72
2020/12/26 00:50:43;;;;;;;32.90;16.95;;;2.60;99.90;;;;;;5076438;28;20029;-72
2020/12/26 00:53:09;;;;;;;32.78;16.90;;;2.50;99.90;;;;;;5076625;28;20108;-72
2020/12/26 00:55:35;;;;;;;31.40;17.38;;;2.40;99.90;;;;;;5076566;28;20466;-72
2020/12/26 00:58:00;;;;;;;28.95;15.63;;;2.40;99.90;;;;;;5076337;28;20028;-71
2020/12/26 01:00:26;;;;;;;29.77;14.75;;;2.50;99.90;;;;;;5075142;28;20025;-72
2020/12/26 01:02:51;;;;;;;29.77;14.82;;;2.50;99.90;;;;;;5075470;28;20085;-71
2020/12/26 01:05:17;;;;;;;32.05;16.52;;;2.50;99.90;;;;;;5057983;28;20021;-72
2020/12/26 01:07:42;;;;;;;28.63;15.60;;;2.40;99.90;;;;;;5076366;28;20021;-72
2020/12/26 01:10:08;;;;;;;26.50;15.15;;;2.40;99.90;;;;;;5076348;28;20398;-72
2020/12/26 01:12:34;;;;;;;26.70;15.15;;;2.40;99.90;;;;;;5075714;28;20039;-72
2020/12/26 01:14:59;;;;;;;31.55;15.68;;;2.40;99.90;;;;;;5075760;28;20136;-72
2020/12/26 01:17:25;;;;;;;31.13;13.88;;;2.40;99.90;;;;;;5076135;28;20461;-72
2020/12/26 01:19:50;;;;;;;39.45;15.63;;;2.40;99.90;;;;;;5075881;28;20052;-72
2020/12/26 01:22:16;;;;;;;30.30;13.65;;;2.40;99.90;;;;;;5076127;28;20107;-72
2020/12/26 01:24:42;;;;;;;23.90;13.18;;;2.50;99.90;;;;;;5076063;28;20039;-72
2020/12/26 01:27:08;;;;;;;27.55;13.15;;;2.50;99.90;;;;;;5076094;28;20552;-72
2020/12/26 01:29:35;;;;;;;24.27;12.27;;;2.50;99.90;;;;;;5075980;28;20020;-72
2020/12/26 01:32:01;;;;;;;24.27;12.38;;;2.50;99.90;;;;;;5075976;28;20023;-72
2020/12/26 01:34:27;;;;;;;24.20;13.10;;;2.50;99.90;;;;;;5074529;28;20032;-72
2020/12/26 01:36:53;;;;;;;25.30;12.93;;;2.50;99.90;;;;;;5075261;28;20102;-72
2020/12/26 01:39:22;;;;;;;22.08;11.65;;;2.50;99.90;;;;;;5075814;28;20017;-72
2020/12/26 01:41:50;;;;;;;20.00;12.48;;;2.50;99.90;;;;;;5075222;28;20016;-71
2020/12/26 01:44:15;;;;;;;18.95;11.15;;;2.60;99.90;;;;;;5075389;28;20023;-72
2020/12/26 01:46:41;;;;;;;22.85;11.18;;;2.60;99.90;;;;;;5075624;28;20385;-72
2020/12/26 01:49:07;;;;;;;22.52;11.25;;;2.60;99.90;;;;;;5075604;28;20125;-72
2020/12/26 01:51:33;;;;;;;22.90;10.38;;;2.60;99.90;;;;;;5074026;28;20029;-72
2020/12/26 01:54:00;;;;;;;19.27;10.60;;;2.60;99.90;;;;;;5073683;28;20440;-72
2020/12/26 01:56:27;;;;;;;23.02;11.30;;;2.60;99.90;;;;;;5075145;28;20021;-72
2020/12/26 01:58:53;;;;;;;20.83;11.93;;;2.60;99.90;;;;;;5075422;28;20052;-71
2020/12/26 02:01:31;;;;;;;19.33;11.35;;;2.60;99.90;;;;;;5073515;28;20048;-72
2020/12/26 02:03:57;;;;;;;21.38;11.77;;;2.60;99.90;;;;;;5075343;28;20091;-72
2020/12/26 02:06:22;;;;;;;23.05;11.48;;;2.60;99.90;;;;;;5073829;28;20052;-72
2020/12/26 02:08:48;;;;;;;22.05;12.05;;;2.70;99.90;;;;;;5074619;28;20039;-72
2020/12/26 02:11:14;;;;;;;28.10;12.88;;;2.60;99.90;;;;;;5075110;28;20032;-72
2020/12/26 02:13:41;;;;;;;28.85;13.43;;;2.60;99.90;;;;;;5074799;28;20032;-72
2020/12/26 02:16:09;;;;;;;27.13;13.38;;;2.70;99.90;;;;;;5074358;28;20055;-72
2020/12/26 02:18:35;;;;;;;21.67;13.38;;;2.70;99.90;;;;;;5074986;28;20408;-72
2020/12/26 02:21:02;;;;;;;25.95;13.18;;;2.70;99.90;;;;;;5074963;28;20074;-72
2020/12/26 02:23:28;;;;;;;22.42;12.82;;;2.70;99.90;;;;;;5074640;28;20020;-71
2020/12/26 02:25:55;;;;;;;21.45;13.60;;;2.80;99.90;;;;;;5075005;28;20515;-72
2020/12/26 02:28:21;;;;;;;26.23;13.13;;;2.80;99.90;;;;;;5074447;28;20028;-72
2020/12/26 02:30:47;;;;;;;23.88;14.48;;;2.80;99.90;;;;;;5074904;28;20033;-72
2020/12/26 02:33:13;;;;;;;28.13;15.13;;;2.70;99.90;;;;;;5074339;28;20033;-72
2020/12/26 02:35:39;;;;;;;26.55;15.25;;;2.70;99.90;;;;;;5074738;28;20111;-71
2020/12/26 02:38:04;;;;;;;24.85;14.98;;;2.70;99.90;;;;;;5074781;28;20104;-71
2020/12/26 02:40:30;;;;;;;31.98;14.82;;;2.70;99.90;;;;;;5074545;28;20028;-72
2020/12/26 02:42:56;;;;;;;27.35;15.52;;;2.80;99.90;;;;;;5072757;28;20020;-71
2020/12/26 02:45:21;;;;;;;24.83;16.35;;;2.80;99.90;;;;;;5073059;28;20024;-72
2020/12/26 02:47:47;;;;;;;30.27;16.33;;;2.80;99.90;;;;;;5074178;28;20044;-72
2020/12/26 02:50:12;;;;;;;26.08;15.77;;;2.80;99.90;;;;;;5074420;28;20029;-72
2020/12/26 02:52:38;;;;;;;27.17;16.50;;;2.80;99.90;;;;;;5074115;28;20436;-71
2020/12/26 02:55:03;;;;;;;31.15;17.00;;;2.80;99.90;;;;;;5074049;28;20052;-72
2020/12/26 02:57:29;;;;;;;25.02;16.65;;;2.80;99.90;;;;;;5074238;28;20449;-72
2020/12/26 02:59:54;;;;;;;29.88;18.55;;;2.80;99.90;;;;;;5074029;28;20020;-72
2020/12/26 03:02:20;;;;;;;28.60;17.80;;;2.80;99.90;;;;;;5074250;28;20081;-72
2020/12/26 03:04:45;;;;;;;31.63;17.17;;;2.80;99.90;;;;;;5072782;28;20031;-72
2020/12/26 03:07:11;;;;;;;35.25;18.15;;;2.80;99.90;;;;;;5074148;28;20021;-72
2020/12/26 03:09:36;;;;;;;32.55;17.23;;;2.80;99.90;;;;;;5074149;28;20034;-72
2020/12/26 03:12:02;;;;;;;32.90;18.48;;;2.80;99.90;;;;;;5074152;28;20028;-72
2020/12/26 03:14:27;;;;;;;29.90;17.33;;;2.80;99.90;;;;;;5073747;28;20455;-72
2020/12/26 03:16:53;;;;;;;26.90;16.63;;;2.70;99.90;;;;;;5072862;28;20475;-72
2020/12/26 03:19:19;;;;;;;32.08;16.67;;;2.70;99.90;;;;;;5074103;28;20453;-72
2020/12/26 03:21:44;;;;;;;34.42;16.90;;;2.80;99.90;;;;;;5072943;28;20374;-72
2020/12/26 03:24:10;;;;;;;28.00;16.55;;;2.70;99.90;;;;;;5073624;28;20476;-72
2020/12/26 03:26:35;;;;;;;32.50;16.83;;;2.80;99.90;;;;;;5074047;28;20528;-71
2020/12/26 03:29:01;;;;;;;30.98;16.05;;;2.80;99.90;;;;;;5073739;28;20025;-72
2020/12/26 03:31:26;;;;;;;29.98;16.35;;;2.70;99.90;;;;;;5073945;28;20029;-72
2020/12/26 03:33:52;;;;;;;28.20;16.58;;;2.70;99.90;;;;;;5072391;28;20052;-72
2020/12/26 03:36:17;;;;;;;29.27;15.43;;;2.70;99.90;;;;;;5073855;28;20408;-72
2020/12/26 03:38:43;;;;;;;38.65;18.05;;;2.80;99.90;;;;;;5073920;28;20028;-72
2020/12/26 03:41:08;;;;;;;27.65;15.93;;;2.70;99.90;;;;;;5073627;28;20028;-72
2020/12/26 03:43:34;;;;;;;32.95;17.02;;;2.80;99.90;;;;;;5072720;28;20021;-72
2020/12/26 03:46:00;;;;;;;36.30;16.90;;;2.70;99.90;;;;;;5072685;28;20024;-72
2020/12/26 03:48:25;;;;;;;32.83;17.90;;;2.70;99.90;;;;;;5073827;28;20029;-72
2020/12/26 03:50:51;;;;;;;34.95;18.27;;;2.70;99.90;;;;;;5055255;28;20033;-71
2020/12/26 03:53:16;;;;;;;37.85;19.33;;;2.70;99.90;;;;;;5073752;28;20028;-72
2020/12/26 03:55:42;;;;;;;33.22;18.17;;;2.70;99.90;;;;;;5073668;28;20424;-72
2020/12/26 03:58:07;;;;;;;36.78;19.70;;;2.70;99.90;;;;;;5071871;28;20482;-72
2020/12/26 04:00:33;;;;;;;40.42;18.83;;;2.70;99.90;;;;;;5073144;28;20382;-72
2020/12/26 04:02:58;;;;;;;44.17;20.60;;;2.60;99.90;;;;;;5073352;28;20099;-72
2020/12/26 04:05:24;;;;;;;40.97;19.48;;;2.60;99.90;;;;;;5073593;28;20021;-71
2020/12/26 04:07:49;;;;;;;41.50;21.02;;;2.60;99.90;;;;;;5072430;28;20079;-72
2020/12/26 04:10:15;;;;;;;37.83;22.08;;;2.60;99.90;;;;;;5073297;28;20032;-72
2020/12/26 04:12:41;;;;;;;38.85;21.90;;;2.60;99.90;;;;;;5073580;28;20020;-71
2020/12/26 04:15:06;;;;;;;36.55;21.15;;;2.60;99.90;;;;;;5073078;28;20045;-72
2020/12/26 04:17:33;;;;;;;36.13;20.40;;;2.70;99.90;;;;;;5073403;28;20032;-71
2020/12/26 04:19:58;;;;;;;40.85;21.35;;;2.70;99.90;;;;;;5073206;28;20028;-71
2020/12/26 04:22:24;;;;;;;34.13;21.08;;;2.70;99.90;;;;;;5073499;28;20100;-72
2020/12/26 04:24:50;;;;;;;39.80;21.38;;;2.70;99.90;;;;;;5071581;28;20441;-72
2020/12/26 04:27:15;;;;;;;42.65;21.70;;;2.70;99.90;;;;;;5073153;28;20060;-72
2020/12/26 04:29:42;;;;;;;45.35;22.83;;;2.70;99.90;;;;;;5073087;28;20028;-72
2020/12/26 04:32:07;;;;;;;37.22;22.15;;;2.70;99.90;;;;;;5073081;28;20024;-72
2020/12/26 04:34:33;;;;;;;38.45;21.75;;;2.70;99.90;;;;;;5073392;28;20039;-72
2020/12/26 04:36:58;;;;;;;39.60;23.08;;;2.70;99.90;;;;;;5058329;28;20087;-72
2020/12/26 04:39:24;;;;;;;46.88;23.95;;;2.70;99.90;;;;;;5076377;28;20025;-72
2020/12/26 04:41:50;;;;;;;40.45;21.70;;;2.70;99.90;;;;;;5058486;28;20025;-72
2020/12/26 04:44:16;;;;;;;37.95;21.08;;;2.80;99.90;;;;;;5076563;28;20020;-72
2020/12/26 04:46:43;;;;;;;33.35;20.20;;;2.80;99.90;;;;;;5076559;28;20032;-72
2020/12/26 04:49:11;;;;;;;37.28;20.80;;;2.80;99.90;;;;;;5076480;28;20050;-72
2020/12/26 04:51:39;;;;;;;40.65;21.00;;;2.80;99.90;;;;;;5076706;28;20035;-72
2020/12/26 04:54:09;;;;;;;33.85;19.50;;;2.80;99.90;;;;;;5076365;28;20492;-72
2020/12/26 04:56:41;;;;;;;35.90;20.08;;;2.90;99.90;;;;;;5076272;28;20020;-72
2020/12/26 04:59:09;;;;;;;38.45;19.52;;;2.90;99.90;;;;;;5076601;28;20020;-72
2020/12/26 05:01:37;;;;;;;38.78;20.70;;;2.80;99.90;;;;;;5076269;28;20538;-72
2020/12/26 05:04:03;;;;;;;36.60;18.50;;;2.90;99.90;;;;;;5076511;28;20023;-72
2020/12/26 05:06:31;;;;;;;36.28;19.70;;;2.90;99.90;;;;;;5076430;28;20032;-72
2020/12/26 05:08:57;;;;;;;43.90;18.42;;;2.80;99.90;;;;;;5076459;28;20020;-71
2020/12/26 05:11:22;;;;;;;32.50;19.50;;;2.80;99.90;;;;;;5075832;28;20029;-72
2020/12/26 05:13:48;;;;;;;38.60;19.48;;;2.80;99.90;;;;;;5076358;28;20063;-72
2020/12/26 05:16:13;;;;;;;37.05;19.45;;;2.80;99.90;;;;;;5075530;28;20513;-72
2020/12/26 05:18:39;;;;;;;38.55;19.45;;;2.80;99.90;;;;;;5076273;28;20461;-72
2020/12/26 05:21:05;;;;;;;39.47;19.27;;;2.80;99.90;;;;;;5076204;28;20484;-72
2020/12/26 05:23:31;;;;;;;38.35;19.08;;;2.80;99.90;;;;;;5076127;28;20070;-72
2020/12/26 05:25:56;;;;;;;35.75;19.30;;;2.80;99.90;;;;;;5076118;28;20024;-72
2020/12/26 05:28:31;;;;;;;31.15;19.42;;;2.80;99.90;;;;;;5076061;28;20466;-71
2020/12/26 05:30:57;;;;;;;39.47;20.20;;;2.80;99.90;;;;;;5075766;28;20024;-72
2020/12/26 05:33:28;;;;;;;35.65;20.42;;;2.70;99.90;;;;;;5075907;28;20040;-71
2020/12/26 05:36:03;;;;;;;37.15;21.08;;;2.70;99.90;;;;;;5075287;28;20035;-72
2020/12/26 05:38:28;;;;;;;42.28;20.63;;;2.80;99.90;;;;;;5075790;28;20028;-72
2020/12/26 05:40:57;;;;;;;40.03;20.98;;;2.80;99.90;;;;;;5075832;28;20079;-72
2020/12/26 05:43:25;;;;;;;41.47;20.38;;;2.80;99.90;;;;;;5075776;28;20355;-72
2020/12/26 05:45:51;;;;;;;49.38;20.48;;;2.90;99.90;;;;;;5075091;28;20021;-72
2020/12/26 05:48:20;;;;;;;30.60;19.30;;;2.90;99.90;;;;;;5075591;28;20035;-72
2020/12/26 05:50:46;;;;;;;42.42;20.80;;;3.00;99.90;;;;;;5075338;28;20028;-72
2020/12/26 05:53:14;;;;;;;40.60;19.45;;;2.90;99.90;;;;;;5075278;28;20027;-72
2020/12/26 05:55:45;;;;;;;35.65;20.20;;;3.00;99.90;;;;;;5073615;28;20025;-71
2020/12/26 05:58:13;;;;;;;41.05;19.55;;;3.00;99.90;;;;;;5073953;28;20021;-71
2020/12/26 06:00:41;;;;;;;38.72;20.70;;;3.00;99.90;;;;;;5074850;28;20082;-72
2020/12/26 06:03:28;;;;;;;38.33;19.77;;;3.00;99.90;;;;;;5075327;28;20012;-72
2020/12/26 06:05:56;;;;;;;39.22;20.02;;;3.00;99.90;;;;;;5074722;28;20017;-72
2020/12/26 06:08:23;;;;;;;35.50;19.10;;;3.10;99.90;;;;;;5075195;28;20112;-72
2020/12/26 06:10:52;;;;;;;40.65;18.83;;;3.00;99.90;;;;;;5075140;28;20025;-72
2020/12/26 06:13:21;;;;;;;37.47;19.63;;;3.00;99.90;;;;;;5074854;28;20016;-72
2020/12/26 06:15:50;;;;;;;36.55;19.63;;;3.00;99.90;;;;;;5074428;28;20032;-72
2020/12/26 06:18:18;;;;;;;37.65;20.23;;;3.00;99.90;;;;;;5075060;28;20070;-72
2020/12/26 06:20:44;;;;;;;34.08;18.08;;;3.00;99.90;;;;;;5075013;28;20466;-72
2020/12/26 06:23:16;;;;;;;34.95;19.05;;;3.00;99.90;;;;;;5074945;28;20025;-72
2020/12/26 06:25:44;;;;;;;33.60;18.55;;;3.00;99.90;;;;;;5074924;28;20517;-72
2020/12/26 06:28:33;;;;;;;32.47;19.58;;;3.10;99.90;;;;;;5074313;28;20487;-72
2020/12/26 06:31:03;;;;;;;33.92;18.80;;;3.00;99.90;;;;;;5072981;28;20028;-72
2020/12/26 06:33:31;;;;;;;34.35;19.17;;;3.10;99.90;;;;;;5074744;28;20103;-72
2020/12/26 06:35:58;;;;;;;43.40;20.00;;;3.10;99.90;;;;;;5074586;28;20025;-72
2020/12/26 06:38:27;;;;;;;40.22;18.38;;;3.10;99.90;;;;;;5074344;28;20347;-72
2020/12/26 06:43:52;;;;;;;43.10;21.38;;;3.10;99.90;;;;;;5112225;27;20384;-72
2020/12/26 06:48:58;;;;;;;40.70;22.35;;;3.20;99.90;;;;;;5112229;27;20343;-71
2020/12/26 06:54:04;;;;;;;39.80;21.17;;;3.20;99.90;;;;;;5112228;27;20353;-70
2020/12/26 06:59:11;;;;;;;41.60;19.83;;;3.30;99.90;;;;;;5112253;27;20342;-72
2020/12/26 07:01:41;;;;;;;40.22;20.13;;;3.30;99.90;;;;;;5111953;28;20353;-72
2020/12/26 07:06:46;;;;;;;38.45;21.15;;;3.30;99.90;;;;;;5091892;28;20349;-70
2020/12/26 07:09:14;;;;;;;40.00;22.00;;;3.20;99.90;;;;;;5090574;28;20031;-71
2020/12/26 07:11:48;;;;;;;43.40;23.70;;;3.20;99.90;;;;;;5091548;28;20364;-70
2020/12/26 07:14:35;;;;;;;48.08;24.13;;;3.10;99.90;;;;;;5089730;28;20032;-72
2020/12/26 07:17:05;;;;;;;44.70;23.77;;;3.10;99.90;;;;;;5091370;28;20022;-72
2020/12/26 07:19:46;;;;;;;42.70;23.85;;;3.10;99.90;;;;;;5091098;28;20477;-72
2020/12/26 07:22:17;;;;;;;46.22;24.98;;;3.20;99.90;;;;;;5091327;28;20476;-72
2020/12/26 07:24:45;;;;;;;45.33;22.70;;;3.10;99.90;;;;;;5091186;28;20101;-72
2020/12/26 07:27:19;;;;;;;52.08;22.80;;;3.20;99.90;;;;;;5090961;28;20016;-72
2020/12/26 07:32:55;;;;;;;50.03;26.63;;;3.20;99.90;;;;;;5112229;27;20351;-72
2020/12/26 07:38:06;;;;;;;62.50;27.27;;;3.20;99.90;;;;;;5112255;27;20100;-73
2020/12/26 07:40:37;;;;;;;56.42;28.58;;;3.20;99.90;;;;;;5110497;28;20465;-73
2020/12/26 07:43:06;;;;;;;62.25;29.13;;;3.30;99.90;;;;;;5111824;28;20027;-72
2020/12/26 07:45:32;;;;;;;56.88;28.27;;;3.30;99.90;;;;;;5111536;28;20426;-73
2020/12/26 07:48:00;;;;;;;59.72;29.27;;;3.30;99.90;;;;;;5111770;28;20427;-73
2020/12/26 07:50:29;;;;;;;53.55;27.58;;;3.30;99.90;;;;;;5111742;28;20024;-72
2020/12/26 07:52:58;;;;;;;57.45;28.95;;;3.40;99.90;;;;;;5111689;28;20099;-72
2020/12/26 07:55:24;;;;;;;52.10;28.63;;;3.30;99.90;;;;;;5111617;28;20365;-71
2020/12/26 07:58:00;;;;;;;58.33;28.90;;;3.30;99.90;;;;;;5111229;28;20023;-72
2020/12/26 08:00:31;;;;;;;55.10;27.75;;;3.30;99.90;;;;;;5111498;28;20023;-72
2020/12/26 08:02:59;;;;;;;52.28;26.42;;;3.40;99.90;;;;;;5111532;28;20023;-71
2020/12/26 08:05:27;;;;;;;50.65;25.70;;;3.40;99.90;;;;;;5111482;28;20020;-72
2020/12/26 08:07:53;;;;;;;46.25;25.77;;;3.40;99.90;;;;;;5109594;28;20082;-71
2020/12/26 08:10:20;;;;;;;53.70;24.88;;;3.40;99.90;;;;;;5110805;28;20024;-73
2020/12/26 08:12:47;;;;;;;46.78;24.95;;;3.40;99.90;;;;;;5110721;28;20062;-73
2020/12/26 08:15:18;;;;;;;44.08;24.10;;;3.40;99.90;;;;;;5109422;28;20038;-72
2020/12/26 08:17:46;;;;;;;41.50;24.90;;;3.50;99.90;;;;;;5110819;28;20095;-72
2020/12/26 08:20:13;;;;;;;41.63;23.70;;;3.40;99.90;;;;;;5109623;28;20016;-72
2020/12/26 08:22:42;;;;;;;42.70;22.38;;;3.50;99.90;;;;;;5110860;28;20457;-72
2020/12/26 08:25:10;;;;;;;41.63;22.85;;;3.60;99.90;;;;;;5110055;28;20089;-72
2020/12/26 08:27:38;;;;;;;36.85;21.80;;;3.60;99.90;;;;;;5110702;28;20413;-72
2020/12/26 08:30:07;;;;;;;36.70;20.67;;;3.60;99.90;;;;;;5110999;28;20077;-72
2020/12/26 08:32:40;;;;;;;39.40;21.23;;;3.70;99.90;;;;;;5110642;28;20461;-72
2020/12/26 08:35:10;;;;;;;37.35;21.08;;;3.70;99.90;;;;;;5109168;28;20048;-72
2020/12/26 08:37:40;;;;;;;38.92;22.92;;;3.70;99.90;;;;;;5110192;28;20070;-72
2020/12/26 08:40:13;;;;;;;31.02;18.95;;;3.80;99.90;;;;;;5109326;28;20024;-72
2020/12/26 08:42:39;;;;;;;;;;;3.90;99.90;;;;;;5110012;28;20445;-72
2020/12/26 08:45:27;;;;;;;39.08;19.98;;;3.90;99.90;;;;;;5110396;28;19904;-72
2020/12/26 08:47:53;;;;;;;38.95;21.42;;;3.90;99.90;;;;;;5104653;28;20017;-71
2020/12/26 08:50:18;;;;;;;36.75;21.02;;;3.90;99.90;;;;;;5096999;28;20031;-72
2020/12/26 08:52:45;;;;;;;36.92;20.63;;;3.90;99.90;;;;;;5096962;28;20074;-72
2020/12/26 08:55:10;;;;;;;36.35;20.88;;;3.90;99.90;;;;;;5096958;28;20032;-72
2020/12/26 08:57:37;;;;;;;39.83;21.75;;;4.00;99.90;;;;;;5096847;28;20373;-72
2020/12/26 09:00:22;;;;;;;39.17;21.20;;;3.90;99.90;;;;;;5095902;28;20024;-71
2020/12/26 09:02:51;;;;;;;49.28;21.92;;;4.00;99.90;;;;;;5096455;28;20388;-72
2020/12/26 09:05:26;;;;;;;40.05;20.23;;;4.00;99.90;;;;;;5096465;28;20461;-72
2020/12/26 09:08:09;;;;;;;38.47;21.38;;;4.00;99.90;;;;;;5096674;28;20027;-72
2020/12/26 09:10:36;;;;;;;30.40;18.77;;;4.00;99.90;;;;;;5096666;28;20020;-72
2020/12/26 09:13:05;;;;;;;36.05;20.38;;;4.00;99.90;;;;;;5095612;28;20457;-72
2020/12/26 09:15:54;;;;;;;31.95;18.45;;;4.10;99.90;;;;;;5096533;28;20039;-72
2020/12/26 09:18:23;;;;;;;34.55;18.27;;;4.10;99.90;;;;;;5128774;27;20043;-72
2020/12/26 09:20:58;;;;;;;31.77;17.58;;;4.00;99.90;;;;;;5094979;28;20461;-72
2020/12/26 09:23:29;;;;;;;30.33;17.17;;;4.00;99.90;;;;;;5096394;28;20024;-72
2020/12/26 09:26:08;;;;;;;31.92;17.58;;;4.00;99.90;;;;;;5096318;28;20106;-70
2020/12/26 09:28:44;;;;;;;28.63;17.42;;;4.00;99.90;;;;;;5095058;28;20043;-72
2020/12/26 09:31:12;;;;;;;31.00;16.20;;;4.00;99.90;;;;;;5094493;28;20461;-72
2020/12/26 09:33:38;;;;;;;32.20;17.67;;;4.00;99.90;;;;;;5095922;28;20407;-72
2020/12/26 09:36:04;;;;;;;26.42;15.85;;;4.00;99.90;;;;;;5095812;28;20473;-72
2020/12/26 09:38:30;;;;;;;29.70;15.07;;;4.10;99.90;;;;;;5094933;28;20039;-72
2020/12/26 09:40:56;;;;;;;27.55;16.23;;;4.10;99.90;;;;;;5096103;28;20420;-72
2020/12/26 09:43:22;;;;;;;31.40;16.45;;;4.10;99.90;;;;;;5094226;28;20020;-72
2020/12/26 09:45:48;;;;;;;27.73;16.63;;;4.10;99.90;;;;;;5095933;28;20016;-72
2020/12/26 09:48:13;;;;;;;25.25;14.35;;;4.20;99.90;;;;;;5095700;28;20358;-72
2020/12/26 09:50:39;;;;;;;31.10;15.95;;;4.30;99.90;;;;;;5095682;28;20373;-72
2020/12/26 09:53:04;;;;;;;31.45;15.13;;;4.30;99.90;;;;;;5094487;28;20402;-71
2020/12/26 09:55:30;;;;;;;25.83;15.60;;;4.40;99.90;;;;;;5094396;28;20468;-73
2020/12/26 09:57:56;;;;;;;24.25;13.45;;;4.40;99.90;;;;;;5095843;28;20020;-72
2020/12/26 10:00:22;;;;;;;25.63;14.60;;;4.30;99.90;;;;;;5094814;28;20020;-72
2020/12/26 10:02:47;;;;;;;30.25;14.75;;;4.30;99.90;;;;;;5095407;28;20127;-72
2020/12/26 10:05:16;;;;;;;25.10;14.00;;;4.40;99.90;;;;;;5095601;28;20142;-72
2020/12/26 10:07:42;;;;;;;24.95;14.45;;;4.30;99.90;;;;;;5095498;28;20028;-72
2020/12/26 10:10:07;;;;;;;25.38;14.23;;;4.40;99.90;;;;;;5094964;28;20035;-72
2020/12/26 10:12:33;;;;;;;21.15;12.77;;;4.50;99.90;;;;;;5095455;28;20077;-72
2020/12/26 10:14:58;;;;;;;19.88;12.52;;;5.00;99.90;;;;;;5095399;28;20041;-72
2020/12/26 10:17:24;;;;;;;19.42;12.73;;;5.20;99.90;;;;;;5094701;28;20030;-72
2020/12/26 10:19:49;;;;;;;18.58;12.73;;;5.20;99.90;;;;;;5076564;28;20103;-72
2020/12/26 10:22:15;;;;;;;24.55;12.60;;;5.10;99.90;;;;;;5093826;28;20419;-72
2020/12/26 10:24:41;;;;;;;24.98;12.80;;;5.00;99.90;;;;;;5095155;28;20027;-72
2020/12/26 10:27:06;;;;;;;20.17;13.48;;;5.00;99.90;;;;;;5094888;28;20426;-72
2020/12/26 10:29:32;;;;;;;23.50;12.40;;;4.90;99.90;;;;;;5093684;28;20465;-72
2020/12/26 10:31:57;;;;;;;16.83;11.38;;;5.40;99.90;;;;;;5095086;28;20373;-72
2020/12/26 10:34:23;;;;;;;19.60;12.02;;;5.50;99.90;;;;;;5094489;28;20066;-72
2020/12/26 10:36:48;;;;;;;20.15;11.75;;;5.20;99.90;;;;;;5092917;28;20048;-72
2020/12/26 10:39:14;;;;;;;20.70;11.65;;;5.10;99.90;;;;;;5094960;28;20024;-72
2020/12/26 10:41:43;;;;;;;22.13;11.93;;;5.00;99.90;;;;;;5094627;28;20488;-72
2020/12/26 10:44:09;;;;;;;22.75;12.15;;;4.90;99.90;;;;;;5094917;28;20093;-72
2020/12/26 10:46:34;;;;;;;20.25;11.93;;;4.90;99.90;;;;;;5093068;28;20435;-71
2020/12/26 10:49:00;;;;;;;19.95;11.23;;;4.90;99.90;;;;;;5094839;28;20388;-72
2020/12/26 10:51:25;;;;;;;24.55;11.52;;;5.00;99.90;;;;;;5094519;28;20024;-72
2020/12/26 10:53:51;;;;;;;18.52;11.38;;;5.30;99.90;;;;;;5094697;28;20366;-72
2020/12/26 10:56:16;;;;;;;22.45;11.75;;;5.20;99.90;;;;;;5094572;28;20480;-72
2020/12/26 10:58:42;;;;;;;19.08;10.85;;;5.10;99.90;;;;;;5094577;28;20028;-72
2020/12/26 11:01:07;;;;;;;18.63;10.32;;;5.00;99.90;;;;;;5094580;28;20024;-72
2020/12/26 11:03:33;;;;;;;21.33;12.00;;;5.00;99.90;;;;;;5094496;28;20051;-72
2020/12/26 11:05:59;;;;;;;20.00;11.23;;;5.10;99.90;;;;;;5094478;28;20055;-72
2020/12/26 11:08:25;;;;;;;18.55;11.55;;;5.00;99.90;;;;;;5093254;28;20027;-72
2020/12/26 11:10:51;;;;;;;18.52;11.68;;;5.00;99.90;;;;;;5093883;28;20047;-72
2020/12/26 11:13:17;;;;;;;22.15;12.25;;;4.90;99.90;;;;;;5094399;28;20492;-72
2020/12/26 11:15:42;;;;;;;17.65;10.77;;;4.90;99.90;;;;;;5093074;28;20350;-72
2020/12/26 11:18:08;;;;;;;17.73;10.85;;;4.90;99.90;;;;;;5092598;28;20093;-72
2020/12/26 11:20:33;;;;;;;20.42;10.73;;;4.90;99.90;;;;;;5094289;28;20034;-72
2020/12/26 11:22:59;;;;;;;16.55;9.10;;;4.90;99.90;;;;;;5092883;28;20032;-72
2020/12/26 11:25:25;;;;;;;18.92;10.80;;;5.00;99.90;;;;;;5093674;28;20016;-72
2020/12/26 11:27:50;;;;;;;24.77;11.45;;;5.00;99.90;;;;;;5094226;28;20067;-72
2020/12/26 11:30:16;;;;;;;20.45;10.77;;;5.00;99.90;;;;;;5093902;28;20381;-72
2020/12/26 11:32:41;;;;;;;17.90;10.18;;;4.90;99.90;;;;;;5094153;28;20376;-72
2020/12/26 11:35:07;;;;;;;20.35;9.95;;;4.90;99.90;;;;;;5094215;28;20020;-72
2020/12/26 11:37:32;;;;;;;18.00;11.30;;;4.90;99.90;;;;;;5093429;28;20090;-72
2020/12/26 11:39:58;;;;;;;22.10;9.85;;;4.90;99.90;;;;;;5092360;28;20107;-72
2020/12/26 11:42:24;;;;;;;16.65;10.25;;;5.00;99.90;;;;;;5094082;28;20062;-72
2020/12/26 11:44:50;;;;;;;21.60;11.27;;;5.00;99.90;;;;;;5093951;28;20028;-72
2020/12/26 11:47:15;;;;;;;18.92;11.45;;;5.00;99.90;;;;;;5094139;28;20028;-72
2020/12/26 11:49:41;;;;;;;17.90;11.15;;;5.10;99.90;;;;;;5093434;28;20024;-72
2020/12/26 11:52:06;;;;;;;17.38;10.32;;;5.20;99.90;;;;;;5093937;28;20020;-72
2020/12/26 11:54:32;;;;;;;19.20;10.43;;;5.20;99.90;;;;;;5093950;28;20406;-72
2020/12/26 11:56:58;;;;;;;14.80;9.60;;;5.30;99.90;;;;;;5093606;28;20024;-72
2020/12/26 11:59:24;;;;;;;18.23;9.18;;;5.30;99.90;;;;;;5093358;28;20056;-72
2020/12/26 12:01:54;;;;;;;17.23;9.20;;;5.30;99.90;;;;;;5093922;28;20406;-72
2020/12/26 12:04:19;;;;;;;15.50;8.57;;;5.30;99.90;;;;;;5093846;28;20566;-72
2020/12/26 12:06:46;;;;;;;13.75;8.32;;;5.30;99.90;;;;;;5093844;28;20076;-72
2020/12/26 12:09:12;;;;;;;15.80;8.32;;;5.30;99.90;;;;;;5092380;28;20035;-72
2020/12/26 12:11:38;;;;;;;17.02;9.93;;;5.40;99.90;;;;;;5093296;28;20028;-73
2020/12/26 12:14:03;;;;;;;13.57;8.57;;;5.40;99.90;;;;;;5093477;28;20360;-73
2020/12/26 12:16:29;;;;;;;12.40;7.15;;;5.40;99.90;;;;;;5092222;28;20035;-72
2020/12/26 12:18:55;;;;;;;13.05;6.28;;;5.40;99.90;;;;;;5093439;28;20102;-73
2020/12/26 12:21:20;;;;;;;11.85;6.95;;;5.50;99.90;;;;;;5093685;28;20111;-71
2020/12/26 12:23:46;;;;;;;11.18;6.50;;;5.50;99.90;;;;;;5094340;28;20027;-73
2020/12/26 12:26:20;;;;;;;12.23;6.18;;;5.50;99.90;;;;;;5097501;28;20469;-72
2020/12/26 12:28:45;;;;;;;12.30;6.43;;;5.50;99.90;;;;;;5097139;28;20034;-73
2020/12/26 12:31:11;;;;;;;11.90;5.90;;;5.40;99.90;;;;;;5097406;28;20107;-72
2020/12/26 12:33:36;;;;;;;12.48;6.00;;;5.40;99.90;;;;;;5097391;28;20054;-73
2020/12/26 12:36:03;;;;;;;10.00;5.70;;;5.40;99.90;;;;;;5095869;28;20044;-73
2020/12/26 12:38:29;;;;;;;9.85;5.80;;;5.40;99.90;;;;;;5096809;28;20020;-73
2020/12/26 12:40:55;;;;;;;12.80;5.13;;;5.40;99.90;;;;;;5097082;28;20016;-73
2020/12/26 12:43:20;;;;;;;8.45;4.70;;;5.30;99.90;;;;;;5097159;28;20120;-73
2020/12/26 12:45:46;;;;;;;13.32;5.88;;;5.30;99.90;;;;;;5096618;28;20032;-73
2020/12/26 12:48:11;;;;;;;8.52;5.13;;;5.20;99.90;;;;;;5096527;28;20027;-73
2020/12/26 12:50:37;;;;;;;10.20;5.22;;;5.30;99.90;;;;;;5097060;28;20081;-71
2020/12/26 12:53:02;;;;;;;11.13;5.68;;;5.30;99.90;;;;;;5095548;28;20059;-71
2020/12/26 12:55:28;;;;;;;13.45;6.00;;;5.50;99.90;;;;;;5097001;28;20114;-71
2020/12/26 12:57:53;;;;;;;10.30;5.55;;;5.40;99.90;;;;;;5096833;28;20035;-73